Green River, Wyoming
Current Conditions -  °F | °C
As of 6:54 AM on Sunday 25 Jan 2015 (Local Time) from KRKS Reporting Station
Clear Clear  
Wind Chill: 16°   Ceiling: Unl
Heat Index: 30°   Visibility: 10mi
Dew Point: 27°   Wind: 26mph
Humidity: 88%   Direction: 250°WSW
Pressure: 30.31"   Gusts: NA
Location:  41.53°N, 109.46°W
Report Text: KRKS 251354Z AUTO 25023KT 10SM CLR M01/M03 A3031 RMK AO2 PK WND 27031/1309 SLP281 T10111028
Loading
Personal Weather Stations






























Interactive Weather Map New forecast layout! Learn more

10-Day Weather Forecast

Advertisements
Track Severe Weather on mobile